Barrage Temiscamingue, Quebec

5:30 PM EDT on September 03, 2015 (GMT -0400)
North Bay | | Change Station
CLOSE
Current Station
Airport
Location: North Bay,
Elevation: 1214 ft
Nearby Weather Stations

Elev 1214 ft 46.36 °N, 79.42 °W | Updated 30 minutes ago

Mostly Cloudy
Mostly Cloudy
79 °F
Feels Like 79 °F
N
9
Wind Variable Wind from North

Today
High -- | Low -- °F
--% Chance of Precip.
Yesterday
High -- | Low -- °F
Precip. -- in
6:38 AM 7:52 PM
Waning Gibbous, 66% visible
Pressure 30.00 in
Visibility 15.0 miles
Clouds Few 3000 ft
Mostly Cloudy 22000 ft
Dew Point 57 °F
Humidity 47%
Rainfall 0.00 in
Snow Depth Not available.
UV 2 out of 12
Pollen Not available.
Air Quality Not available.
Flu Activity Not available.
METAR CYYB 032100Z 36008KT 340V080 15SM FEW030 BKN220 26/14 A3000 RMK CU1CI4 SLP158 DENSITY ALT 2600FT
Pressure 30.00 in
Visibility 15.0 miles
Clouds Few 3000 ft
Mostly Cloudy 22000 ft
Dew Point 57 °F
Humidity 47%
Rainfall 0.00 in
Snow Depth Not available.
UV 2 out of 12
Pollen Not available.
Air Quality Not available.
Flu Activity Not available.
METAR CYYB 032100Z 36008KT 340V080 15SM FEW030 BKN220 26/14 A3000 RMK CU1CI4 SLP158 DENSITY ALT 2600FT

10-Day Weather Forecast

×

Almanac

Astronomy

Sep. 03, 2015 Rise Set
Actual Time
Civil Twilight
Nautical Twilight
Astronomical Twilight
Moon
Length of Visible Light
Length of Day
Tomorrow will be .
, % of the Moon is Illuminated

Today's Extremes

Country Highs Country Lows

Community

WunderPhotos

Upload Photos

1,852,043 photos uploaded!

WunderBlogs® & News

Nearby

Air Quality

  Air Quality AQ Index Pollutant
Not available.

Snow Depth

Station Depth Elevation

Earthquake Activity

City Distance Mag. Time & Date
Minimum magnitude displayed is 2.5.

Coastal Water Temperatures

Place Temperature

Stations

Nearby Weather Stations

Station Location Temp. Windchill Dew Point Humidity Wind Precip. Elev Updated Type